Time;durP1;ratioP1;P1;durP2;ratioP2;P2;SDS_P1;SDS_P2;PMS_P1;PMS_P2;Temp;Humidity;BMP_temperature;BMP_pressure;BME280_temperature;BME280_humidity;BME280_pressure;Samples;Min_cycle;Max_cycle;Signal;HPM_P1;HPM_P2
2022/01/16 00:01:46;;;;;;;2.38;2.08;;;0.90;99.90;;;;;;7375649;19;20313;-72
2022/01/16 00:04:12;;;;;;;5.47;2.63;;;0.90;99.90;;;;;;7375575;19;20313;-72
2022/01/16 00:06:45;;;;;;;2.63;2.13;;;0.80;99.90;;;;;;7378398;19;21170;-72
2022/01/16 00:09:11;;;;;;;3.10;2.30;;;0.80;99.90;;;;;;7376971;19;20331;-71
2022/01/16 00:11:37;;;;;;;3.63;2.25;;;0.70;99.90;;;;;;7377682;19;20371;-72
2022/01/16 00:14:04;;;;;;;2.40;2.10;;;0.70;99.90;;;;;;7375863;19;20323;-72
2022/01/16 00:16:29;;;;;;;3.17;2.00;;;0.60;99.90;;;;;;7376077;19;20355;-72
2022/01/16 00:18:55;;;;;;;2.77;2.20;;;0.60;99.90;;;;;;7375362;19;20986;-72
2022/01/16 00:21:32;;;;;;;3.63;2.22;;;0.50;99.90;;;;;;7382122;19;20320;-72
2022/01/16 00:23:58;;;;;;;2.47;2.00;;;0.40;99.90;;;;;;7274568;19;2007196;-71
2022/01/16 00:26:23;;;;;;;2.83;2.23;;;0.30;99.90;;;;;;7378942;19;20348;-72
2022/01/16 00:28:50;;;;;;;2.30;2.10;;;0.30;99.90;;;;;;7364626;19;20401;-72
2022/01/16 00:31:16;;;;;;;2.22;2.03;;;0.10;99.90;;;;;;7378278;19;20309;-71
2022/01/16 00:33:44;;;;;;;3.08;2.28;;;0.00;99.90;;;;;;7376015;19;20323;-71
2022/01/16 00:36:10;;;;;;;5.18;2.40;;;0.00;99.90;;;;;;7378559;19;20340;-72
2022/01/16 00:38:39;;;;;;;4.38;2.25;;;0.00;99.90;;;;;;7375269;19;20301;-72
2022/01/16 00:41:04;;;;;;;3.87;2.27;;;0.00;99.90;;;;;;7378352;19;20317;-72
2022/01/16 00:43:30;;;;;;;3.53;2.37;;;-0.10;99.90;;;;;;7374081;19;20321;-72
2022/01/16 00:45:56;;;;;;;2.50;2.30;;;-0.20;99.90;;;;;;7375368;19;20339;-72
2022/01/16 00:48:21;;;;;;;4.60;2.30;;;-0.20;99.90;;;;;;7375381;19;20875;-72
2022/01/16 00:50:47;;;;;;;2.25;1.95;;;-0.30;99.90;;;;;;7380454;19;20309;-72
2022/01/16 00:53:13;;;;;;;2.53;2.00;;;-0.30;99.90;;;;;;7383816;19;20351;-72
2022/01/16 00:55:39;;;;;;;2.23;2.03;;;-0.30;99.90;;;;;;7385706;19;20320;-72
2022/01/16 00:58:05;;;;;;;2.60;2.22;;;-0.40;99.90;;;;;;7386217;19;20300;-72
2022/01/16 01:00:32;;;;;;;3.63;2.42;;;-0.40;99.90;;;;;;7379107;19;20399;-72
2022/01/16 01:02:59;;;;;;;3.23;2.60;;;-0.50;99.90;;;;;;7383464;19;20304;-73
2022/01/16 01:05:24;;;;;;;2.30;2.10;;;-0.50;99.90;;;;;;7381621;19;20320;-72
2022/01/16 01:07:50;;;;;;;3.75;2.35;;;-0.50;99.90;;;;;;7382079;19;20945;-72
2022/01/16 01:10:16;;;;;;;3.25;2.33;;;-0.60;99.90;;;;;;7381347;19;20367;-72
2022/01/16 01:13:08;;;;;;;5.50;2.77;;;-0.60;99.90;;;;;;7384247;19;20323;-72
2022/01/16 01:15:41;;;;;;;2.83;2.50;;;-0.70;99.90;;;;;;7279891;19;2007581;-72
2022/01/16 01:18:07;;;;;;;2.58;2.30;;;-0.80;99.90;;;;;;7382233;19;20305;-72
2022/01/16 01:20:33;;;;;;;3.67;2.60;;;-0.70;99.90;;;;;;7379290;19;20681;-72
2022/01/16 01:22:58;;;;;;;6.30;2.77;;;-0.80;99.90;;;;;;7385420;19;20316;-72
2022/01/16 01:25:24;;;;;;;4.15;2.80;;;-0.80;99.90;;;;;;7382340;19;20309;-72
2022/01/16 01:27:50;;;;;;;5.83;2.93;;;-0.90;99.90;;;;;;7381626;19;20337;-73
2022/01/16 01:30:17;;;;;;;3.00;2.40;;;-0.90;99.90;;;;;;7382558;19;20709;-72
2022/01/16 01:32:44;;;;;;;4.35;2.50;;;-1.00;99.90;;;;;;7383314;19;20831;-73
2022/01/16 01:35:11;;;;;;;5.57;2.90;;;-1.10;99.90;;;;;;7382138;19;20361;-72
2022/01/16 01:37:37;;;;;;;4.80;2.88;;;-1.20;99.90;;;;;;7382166;19;20333;-72
2022/01/16 01:40:03;;;;;;;4.43;2.90;;;-1.20;99.90;;;;;;7381008;19;20680;-72
2022/01/16 01:42:35;;;;;;;4.93;2.97;;;-1.20;99.90;;;;;;7382837;19;20355;-72
2022/01/16 01:53:15;;;;;;;3.35;2.88;;;-1.20;99.90;;;;;;7280815;19;2004501;-71
2022/01/16 01:55:44;;;;;;;4.30;2.85;;;-1.30;99.90;;;;;;7382359;19;20344;-73
2022/01/16 01:58:10;;;;;;;3.08;2.40;;;-1.30;99.90;;;;;;7381172;19;20316;-72
2022/01/16 02:00:37;;;;;;;5.10;3.00;;;-1.30;99.90;;;;;;7383097;19;20317;-73
2022/01/16 02:05:31;;;;;;;2.67;2.45;;;-1.40;99.90;;;;;;7380135;19;21181;-72
2022/01/16 02:07:57;;;;;;;2.93;2.50;;;-1.40;99.90;;;;;;7381249;19;20331;-71
2022/01/16 02:10:23;;;;;;;5.57;2.72;;;-1.50;99.90;;;;;;7379561;19;20817;-72
2022/01/16 02:12:55;;;;;;;2.95;2.55;;;-1.50;99.90;;;;;;7381974;19;20373;-72
2022/01/16 02:31:44;;;;;;;2.88;2.30;;;-1.60;99.90;;;;;;7388199;19;20848;-71
2022/01/16 02:34:37;;;;;;;3.92;2.42;;;-1.60;99.90;;;;;;7379167;19;20324;-72
2022/01/16 02:37:07;;;;;;;2.77;2.30;;;-1.60;99.90;;;;;;7277713;19;2008280;-71
2022/01/16 02:39:35;;;;;;;3.90;2.58;;;-1.60;99.90;;;;;;7380029;19;20332;-72
2022/01/16 02:42:02;;;;;;;4.30;2.55;;;-1.70;99.90;;;;;;7380934;19;20767;-72
2022/01/16 02:46:57;;;;;;;5.75;2.60;;;-1.70;99.90;;;;;;7381006;19;20867;-72
2022/01/16 02:49:30;;;;;;;5.15;2.63;;;-1.70;99.90;;;;;;7380275;19;20337;-71
2022/01/16 02:52:04;;;;;;;3.92;2.30;;;-1.70;99.90;;;;;;7378924;19;26474;-72
2022/01/16 02:54:35;;;;;;;3.97;2.20;;;-1.80;99.90;;;;;;7376478;19;20316;-72
2022/01/16 02:57:01;;;;;;;3.40;2.20;;;-1.80;99.90;;;;;;7380664;19;20346;-71
2022/01/16 02:59:27;;;;;;;5.45;2.30;;;-1.80;99.90;;;;;;7377171;19;20321;-72
2022/01/16 03:01:52;;;;;;;3.20;2.70;;;-1.80;99.90;;;;;;7378584;19;20410;-71
2022/01/16 03:04:18;;;;;;;6.17;2.80;;;-1.80;99.90;;;;;;7376194;19;20347;-72
2022/01/16 03:06:44;;;;;;;3.35;2.55;;;-1.90;99.90;;;;;;7380638;19;20419;-71
2022/01/16 03:09:10;;;;;;;4.85;2.38;;;-1.90;99.90;;;;;;7378974;19;20321;-71
2022/01/16 03:11:41;;;;;;;3.55;2.28;;;-1.90;99.90;;;;;;7379132;19;20408;-71
2022/01/16 03:14:12;;;;;;;3.05;2.30;;;-2.00;99.90;;;;;;7375897;19;20316;-71
2022/01/16 03:16:41;;;;;;;4.05;2.67;;;-1.90;99.90;;;;;;7377872;19;20297;-72
2022/01/16 03:21:54;;;;;;;5.88;2.60;;;-2.00;99.90;;;;;;7379361;19;20317;-72
2022/01/16 03:24:21;;;;;;;3.88;2.78;;;-2.00;99.90;;;;;;7374526;19;20308;-72
2022/01/16 03:26:47;;;;;;;3.53;2.38;;;-2.00;99.90;;;;;;7379384;19;20344;-72
2022/01/16 03:29:13;;;;;;;2.90;2.25;;;-2.10;99.90;;;;;;7379736;19;20336;-71
2022/01/16 03:31:38;;;;;;;2.40;2.20;;;-2.00;99.90;;;;;;7377230;19;20312;-72
2022/01/16 03:34:04;;;;;;;4.77;2.47;;;-2.20;99.90;;;;;;7376109;19;21333;-71
2022/01/16 03:36:30;;;;;;;3.10;2.40;;;-2.20;99.90;;;;;;7380041;19;20313;-71
2022/01/16 03:38:55;;;;;;;2.38;2.13;;;-2.20;99.90;;;;;;7362821;19;20363;-72
2022/01/16 03:41:21;;;;;;;3.87;2.60;;;-2.20;99.90;;;;;;7377728;19;20289;-71
2022/01/16 03:43:47;;;;;;;3.30;2.40;;;-2.20;99.90;;;;;;7377770;19;20369;-72
2022/01/16 03:46:13;;;;;;;3.47;2.53;;;-2.20;99.90;;;;;;7379829;19;20391;-72
2022/01/16 03:48:38;;;;;;;5.03;2.93;;;-2.20;99.90;;;;;;7375386;19;20328;-72
2022/01/16 03:51:04;;;;;;;3.22;2.38;;;-2.20;99.90;;;;;;7378679;19;20316;-71
2022/01/16 03:53:29;;;;;;;2.30;2.10;;;-2.20;99.90;;;;;;7374360;19;20324;-72
2022/01/16 03:55:55;;;;;;;3.70;2.90;;;-2.20;99.90;;;;;;7377568;19;20352;-71
2022/01/16 03:58:21;;;;;;;2.70;2.30;;;-2.20;99.90;;;;;;7375267;19;20696;-71
2022/01/16 04:00:47;;;;;;;3.33;2.50;;;-2.20;99.90;;;;;;7378684;19;20337;-71
2022/01/16 04:03:12;;;;;;;4.20;2.43;;;-2.20;99.90;;;;;;7377301;19;20321;-70
2022/01/16 04:05:38;;;;;;;3.97;2.55;;;-2.30;99.90;;;;;;7378295;19;21347;-70
2022/01/16 04:08:04;;;;;;;2.88;2.28;;;-2.30;99.90;;;;;;7382452;19;20395;-70
2022/01/16 04:10:30;;;;;;;3.40;2.22;;;-2.30;99.90;;;;;;7380097;19;21182;-71
2022/01/16 04:12:56;;;;;;;2.93;2.10;;;-2.30;99.90;;;;;;7378465;19;20673;-71
2022/01/16 04:17:47;;;;;;;3.13;2.33;;;-2.30;99.90;;;;;;7375934;19;20328;-72
2022/01/16 04:20:16;;;;;;;4.30;2.60;;;-2.30;99.90;;;;;;7375892;19;20372;-71
2022/01/16 04:22:45;;;;;;;2.40;2.15;;;-2.30;99.90;;;;;;7376106;19;20440;-71
2022/01/16 04:25:11;;;;;;;4.15;2.72;;;-2.40;99.90;;;;;;7377988;19;20360;-71
2022/01/16 04:27:36;;;;;;;2.80;2.37;;;-2.30;99.90;;;;;;7380222;19;20839;-71
2022/01/16 04:30:03;;;;;;;2.80;2.27;;;-2.40;99.90;;;;;;7382232;19;20361;-70
2022/01/16 04:32:29;;;;;;;3.10;2.08;;;-2.40;99.90;;;;;;7382193;19;20300;-70
2022/01/16 04:34:54;;;;;;;2.60;2.40;;;-2.40;99.90;;;;;;7382668;19;20296;-70
2022/01/16 04:37:20;;;;;;;5.03;2.28;;;-2.40;99.90;;;;;;7382075;19;20319;-71
2022/01/16 04:39:50;;;;;;;3.90;2.77;;;-2.50;99.90;;;;;;7379833;19;20355;-71
2022/01/16 04:45:01;;;;;;;2.95;2.38;;;-2.50;99.90;;;;;;7279046;19;2004564;-72
2022/01/16 04:47:27;;;;;;;3.78;2.65;;;-2.50;99.90;;;;;;7376113;19;20325;-72
2022/01/16 04:49:52;;;;;;;3.13;2.80;;;-2.50;99.90;;;;;;7378954;19;20332;-71
2022/01/16 04:52:18;;;;;;;5.75;2.40;;;-2.50;99.90;;;;;;7383266;19;21163;-72
2022/01/16 04:54:43;;;;;;;5.47;2.95;;;-2.50;99.90;;;;;;7382399;19;20336;-72
2022/01/16 04:57:13;;;;;;;5.90;2.40;;;-2.60;99.90;;;;;;7385189;19;20324;-72
2022/01/16 04:59:39;;;;;;;4.82;2.83;;;-2.60;99.90;;;;;;7382883;19;20392;-71
2022/01/16 05:02:04;;;;;;;6.07;3.23;;;-2.60;99.90;;;;;;7381500;19;20400;-72
2022/01/16 05:04:30;;;;;;;4.33;2.53;;;-2.70;99.90;;;;;;7381833;19;20316;-72
2022/01/16 05:06:56;;;;;;;4.57;2.88;;;-2.70;99.90;;;;;;7384840;19;20309;-71
2022/01/16 05:09:21;;;;;;;4.90;3.23;;;-2.70;99.90;;;;;;7377189;19;20341;-72
2022/01/16 05:11:53;;;;;;;4.10;2.97;;;-2.70;99.90;;;;;;7382048;19;21120;-72
2022/01/16 05:17:04;;;;;;;4.88;2.92;;;-2.60;99.90;;;;;;7279184;19;2004418;-72
2022/01/16 05:19:29;;;;;;;4.27;3.30;;;-2.60;99.90;;;;;;7382290;19;20332;-72
2022/01/16 05:21:55;;;;;;;5.93;3.15;;;-2.60;99.90;;;;;;7381853;19;20313;-72
2022/01/16 05:24:23;;;;;;;3.78;2.78;;;-2.70;99.90;;;;;;7382585;19;21259;-71
2022/01/16 05:26:48;;;;;;;3.22;2.92;;;-2.60;99.90;;;;;;7385384;19;20313;-71
2022/01/16 05:29:14;;;;;;;5.32;2.90;;;-2.60;99.90;;;;;;7381197;19;20331;-71
2022/01/16 05:31:44;;;;;;;5.75;3.00;;;-2.60;99.90;;;;;;7384244;19;20305;-71
2022/01/16 05:34:18;;;;;;;4.15;3.20;;;-2.60;99.90;;;;;;7382904;19;20312;-72
2022/01/16 05:36:44;;;;;;;4.30;2.67;;;-2.60;99.90;;;;;;7381181;19;20737;-72
2022/01/16 05:39:10;;;;;;;4.25;3.08;;;-2.60;99.90;;;;;;7378486;19;20339;-71
2022/01/16 05:41:36;;;;;;;7.20;3.90;;;-2.60;99.90;;;;;;7381308;19;20840;-71
2022/01/16 05:44:02;;;;;;;8.52;4.03;;;-2.70;99.90;;;;;;7378763;19;20341;-72
2022/01/16 05:46:27;;;;;;;5.10;3.42;;;-2.70;99.90;;;;;;7388167;19;20447;-72
2022/01/16 05:48:53;;;;;;;4.07;3.20;;;-2.70;99.90;;;;;;7384755;19;20859;-71
2022/01/16 05:51:19;;;;;;;6.95;3.45;;;-2.70;99.90;;;;;;7383774;19;20311;-71
2022/01/16 05:53:44;;;;;;;4.60;3.25;;;-2.70;99.90;;;;;;7382183;19;20333;-72
2022/01/16 05:56:12;;;;;;;4.57;3.20;;;-2.60;99.90;;;;;;7383211;19;20343;-71
2022/01/16 05:58:38;;;;;;;6.40;3.40;;;-2.60;99.90;;;;;;7380820;19;21267;-71
2022/01/16 06:01:04;;;;;;;5.72;3.70;;;-2.60;99.90;;;;;;7382586;19;20324;-71
2022/01/16 06:03:30;;;;;;;5.90;3.53;;;-2.60;99.90;;;;;;7380493;19;20367;-72
2022/01/16 06:05:55;;;;;;;7.70;3.70;;;-2.50;99.90;;;;;;7380679;19;20322;-72
2022/01/16 06:08:21;;;;;;;7.37;3.27;;;-2.50;99.90;;;;;;7381263;19;20307;-71
2022/01/16 06:10:47;;;;;;;5.15;3.60;;;-2.50;99.90;;;;;;7381154;19;22338;-71
2022/01/16 06:13:13;;;;;;;4.93;3.40;;;-2.50;99.90;;;;;;7379951;19;20325;-73
2022/01/16 06:15:40;;;;;;;5.30;3.57;;;-2.50;99.90;;;;;;7382877;19;20309;-72
2022/01/16 06:18:06;;;;;;;3.33;2.80;;;-2.50;99.90;;;;;;7380659;19;20345;-72
2022/01/16 06:20:32;;;;;;;4.20;3.13;;;-2.50;99.90;;;;;;7380471;19;20372;-71
2022/01/16 06:22:58;;;;;;;3.80;2.60;;;-2.50;99.90;;;;;;7382238;19;20545;-71
2022/01/16 06:25:24;;;;;;;6.68;2.72;;;-2.50;99.90;;;;;;7379538;19;20360;-71
2022/01/16 06:27:49;;;;;;;6.85;3.00;;;-2.40;99.90;;;;;;7381873;19;20358;-71
2022/01/16 06:30:15;;;;;;;6.63;3.17;;;-2.40;99.90;;;;;;7374915;19;21396;-71
2022/01/16 06:32:41;;;;;;;3.83;3.33;;;-2.40;99.90;;;;;;7380844;19;20405;-72
2022/01/16 06:35:07;;;;;;;3.72;2.92;;;-2.40;99.90;;;;;;7381870;19;20335;-71
2022/01/16 06:37:33;;;;;;;5.90;2.85;;;-2.40;99.90;;;;;;7382519;19;20361;-71
2022/01/16 06:39:59;;;;;;;3.25;2.95;;;-2.40;99.90;;;;;;7380402;19;20969;-72
2022/01/16 06:42:24;;;;;;;3.88;3.13;;;-2.40;99.90;;;;;;7378911;19;20300;-71
2022/01/16 06:44:50;;;;;;;4.90;3.43;;;-2.40;99.90;;;;;;7378286;19;20356;-71
2022/01/16 06:47:16;;;;;;;4.20;3.63;;;-2.50;99.90;;;;;;7380804;19;20872;-71
2022/01/16 06:49:42;;;;;;;4.05;3.38;;;-2.50;99.90;;;;;;7378148;19;20329;-72
2022/01/16 06:52:07;;;;;;;3.10;2.80;;;-2.50;99.90;;;;;;7377191;19;20372;-71
2022/01/16 06:54:33;;;;;;;5.90;3.17;;;-2.40;99.90;;;;;;7377345;19;20725;-71
2022/01/16 06:56:59;;;;;;;5.53;3.53;;;-2.40;99.90;;;;;;7380026;19;20312;-71
2022/01/16 06:59:24;;;;;;;6.13;3.47;;;-2.50;99.90;;;;;;7376550;19;20304;-71
2022/01/16 07:01:50;;;;;;;5.28;3.72;;;-2.50;99.90;;;;;;7379780;19;20381;-71
2022/01/16 07:04:16;;;;;;;4.10;3.27;;;-2.50;99.90;;;;;;7376314;19;20339;-72
2022/01/16 07:06:41;;;;;;;4.57;3.50;;;-2.40;99.90;;;;;;7382356;19;20819;-71
2022/01/16 07:09:07;;;;;;;4.35;3.03;;;-2.50;99.90;;;;;;7379452;19;20331;-71
2022/01/16 07:11:33;;;;;;;4.87;3.97;;;-2.40;99.90;;;;;;7379812;19;20316;-71
2022/01/16 07:13:58;;;;;;;5.25;3.78;;;-2.40;99.90;;;;;;7378696;19;21146;-71
2022/01/16 07:16:24;;;;;;;6.50;4.78;;;-2.40;99.90;;;;;;7380112;19;20317;-71
2022/01/16 07:18:50;;;;;;;5.03;3.83;;;-2.40;99.90;;;;;;7379051;19;20309;-71
2022/01/16 07:21:15;;;;;;;5.22;3.65;;;-2.40;99.90;;;;;;7378456;19;20321;-71
2022/01/16 07:23:42;;;;;;;5.07;3.63;;;-2.40;99.90;;;;;;7376910;19;20325;-71
2022/01/16 07:26:07;;;;;;;3.60;3.10;;;-2.40;99.90;;;;;;7385827;19;20429;-73
2022/01/16 07:28:33;;;;;;;10.27;4.37;;;-2.30;99.90;;;;;;7382251;19;21304;-72
2022/01/16 07:30:59;;;;;;;5.00;3.95;;;-2.30;99.90;;;;;;7380757;19;20328;-71
2022/01/16 07:33:24;;;;;;;3.83;3.30;;;-2.40;99.90;;;;;;7378008;19;20336;-72
2022/01/16 07:35:50;;;;;;;5.43;4.00;;;-2.30;99.90;;;;;;7379436;19;20332;-72
2022/01/16 07:38:16;;;;;;;6.37;4.63;;;-2.30;99.90;;;;;;7377276;19;20324;-72
2022/01/16 07:40:41;;;;;;;8.05;4.75;;;-2.30;99.90;;;;;;7380054;19;20973;-72
2022/01/16 07:43:07;;;;;;;6.13;5.30;;;-2.30;99.90;;;;;;7379201;19;20317;-72
2022/01/16 07:45:33;;;;;;;8.18;5.65;;;-2.30;99.90;;;;;;7376897;19;20416;-71
2022/01/16 07:47:59;;;;;;;13.20;5.55;;;-2.20;99.90;;;;;;7379187;19;20677;-71
2022/01/16 07:50:25;;;;;;;8.38;5.55;;;-2.10;99.90;;;;;;7375650;19;20320;-72
2022/01/16 07:52:50;;;;;;;6.32;4.63;;;-2.20;99.90;;;;;;7376475;19;20336;-71
2022/01/16 07:55:16;;;;;;;6.53;5.30;;;-2.00;99.90;;;;;;7377687;19;20324;-72
2022/01/16 07:57:42;;;;;;;9.93;5.63;;;-1.90;99.90;;;;;;7377005;19;20324;-71
2022/01/16 08:00:09;;;;;;;7.63;5.33;;;-1.90;99.90;;;;;;7375589;19;20440;-71
2022/01/16 08:02:38;;;;;;;8.20;5.50;;;-1.80;99.90;;;;;;7378508;19;20340;-71
2022/01/16 08:05:04;;;;;;;9.45;5.43;;;-1.70;99.90;;;;;;7374996;19;20327;-72
2022/01/16 08:07:30;;;;;;;8.65;6.03;;;-1.70;99.90;;;;;;7378083;19;20878;-72
2022/01/16 08:09:56;;;;;;;11.80;6.95;;;-1.60;99.90;;;;;;7377082;19;20328;-72
2022/01/16 08:12:21;;;;;;;10.43;7.20;;;-1.60;99.90;;;;;;7362776;19;20307;-71
2022/01/16 08:14:47;;;;;;;9.07;7.00;;;-1.40;99.90;;;;;;7377345;19;20736;-72
2022/01/16 08:17:12;;;;;;;11.45;7.00;;;-1.50;99.90;;;;;;7379380;19;20806;-71
2022/01/16 08:19:38;;;;;;;9.23;6.37;;;-1.40;99.90;;;;;;7374196;19;20340;-72
2022/01/16 08:22:04;;;;;;;10.50;6.03;;;-1.40;99.90;;;;;;7377721;19;20898;-72
2022/01/16 08:24:29;;;;;;;9.18;6.22;;;-1.40;99.90;;;;;;7372879;19;20309;-72
2022/01/16 08:26:55;;;;;;;16.80;5.90;;;-1.20;99.90;;;;;;7378816;19;20292;-72
2022/01/16 08:29:21;;;;;;;7.37;5.53;;;-1.20;99.90;;;;;;7378777;19;20541;-72
2022/01/16 08:31:47;;;;;;;7.95;5.70;;;-1.10;99.90;;;;;;7378921;19;20333;-71
2022/01/16 08:34:12;;;;;;;8.57;6.40;;;-1.10;99.90;;;;;;7377880;19;20753;-72
2022/01/16 08:36:38;;;;;;;7.07;5.77;;;-1.00;99.90;;;;;;7379565;19;20432;-72
2022/01/16 08:39:04;;;;;;;7.72;6.40;;;-1.00;99.90;;;;;;7375284;19;20316;-71
2022/01/16 08:41:30;;;;;;;12.18;6.10;;;-0.90;99.90;;;;;;7376191;19;20328;-71
2022/01/16 08:43:56;;;;;;;7.70;6.47;;;-0.80;99.90;;;;;;7377812;19;20329;-72
2022/01/16 08:46:21;;;;;;;11.35;8.55;;;-0.70;99.90;;;;;;7380302;19;20323;-72
2022/01/16 08:48:48;;;;;;;10.47;7.80;;;-0.70;99.90;;;;;;7377621;19;20380;-76
2022/01/16 08:51:14;;;;;;;6.72;6.00;;;-0.60;99.90;;;;;;7377276;19;20325;-73
2022/01/16 08:53:39;;;;;;;7.63;5.93;;;-0.60;99.90;;;;;;7376188;19;20332;-72
2022/01/16 08:56:05;;;;;;;8.43;6.82;;;-0.50;99.90;;;;;;7376630;19;20342;-72
2022/01/16 08:58:31;;;;;;;9.25;7.10;;;-0.50;99.90;;;;;;7356453;19;20339;-74
2022/01/16 09:00:56;;;;;;;11.03;8.03;;;-0.40;99.90;;;;;;7375350;19;20345;-73
2022/01/16 09:03:22;;;;;;;12.40;7.60;;;-0.30;99.90;;;;;;7374121;19;20326;-74
2022/01/16 09:05:49;;;;;;;10.02;7.47;;;-0.20;99.90;;;;;;7383384;19;20315;-72
2022/01/16 09:08:14;;;;;;;9.50;6.82;;;-0.10;99.90;;;;;;7377596;19;20344;-73
2022/01/16 09:10:41;;;;;;;12.70;8.80;;;-0.10;99.90;;;;;;7374950;19;20317;-74
2022/01/16 09:13:11;;;;;;;10.53;7.23;;;-0.10;99.90;;;;;;7377040;19;20333;-74
2022/01/16 09:15:38;;;;;;;10.90;7.37;;;0.00;99.90;;;;;;7381825;19;20355;-73
2022/01/16 09:18:04;;;;;;;9.50;7.18;;;0.00;99.90;;;;;;7361236;19;20856;-75
2022/01/16 09:20:29;;;;;;;9.25;6.97;;;0.10;99.90;;;;;;7382291;19;20309;-74
2022/01/16 09:22:55;;;;;;;9.57;7.65;;;0.20;99.90;;;;;;7382279;19;20360;-74
2022/01/16 09:25:22;;;;;;;9.93;7.93;;;0.20;99.90;;;;;;7383628;19;20412;-74
2022/01/16 09:27:48;;;;;;;9.53;7.90;;;0.30;99.90;;;;;;7380923;19;20328;-74
2022/01/16 09:30:14;;;;;;;11.30;7.93;;;0.30;99.90;;;;;;7378438;19;20317;-74
2022/01/16 09:32:39;;;;;;;15.48;10.23;;;0.40;99.90;;;;;;7383509;19;21249;-73
2022/01/16 09:35:06;;;;;;;17.10;11.90;;;0.40;99.90;;;;;;7380806;19;20340;-74
2022/01/16 09:37:32;;;;;;;29.33;18.67;;;0.50;99.90;;;;;;7371262;19;21147;-75
2022/01/16 09:39:59;;;;;;;18.97;13.20;;;0.50;99.90;;;;;;7381668;19;20354;-74
2022/01/16 09:42:26;;;;;;;16.88;10.80;;;0.50;99.90;;;;;;7379859;19;20341;-74
2022/01/16 09:44:51;;;;;;;12.90;9.43;;;0.60;99.90;;;;;;7378733;19;20880;-72
2022/01/16 09:47:17;;;;;;;17.02;11.95;;;0.60;99.90;;;;;;7383595;19;20321;-74
2022/01/16 09:49:44;;;;;;;11.17;7.40;;;0.70;99.90;;;;;;7380737;19;20317;-73
2022/01/16 09:52:10;;;;;;;12.38;9.25;;;0.70;99.90;;;;;;7384341;19;20313;-73
2022/01/16 09:54:37;;;;;;;11.73;8.33;;;0.70;99.90;;;;;;7375107;19;21158;-73
2022/01/16 09:57:03;;;;;;;12.48;7.97;;;0.70;99.90;;;;;;7381199;19;20345;-73
2022/01/16 09:59:28;;;;;;;9.00;7.57;;;0.70;99.90;;;;;;7380086;19;20343;-73
2022/01/16 10:01:54;;;;;;;15.32;10.60;;;0.70;99.90;;;;;;7379545;19;20375;-73
2022/01/16 10:04:32;;;;;;;13.73;10.10;;;0.70;99.90;;;;;;7381215;19;20324;-73
2022/01/16 10:06:59;;;;;;;11.48;8.30;;;0.80;99.90;;;;;;7383247;19;20348;-73
2022/01/16 10:09:25;;;;;;;13.00;8.50;;;0.80;99.90;;;;;;7380254;19;20305;-73
2022/01/16 10:11:58;;;;;;;11.47;9.60;;;0.90;99.90;;;;;;7383022;19;20455;-73
2022/01/16 10:14:44;;;;;;;10.05;7.90;;;0.90;99.90;;;;;;7371943;19;20340;-73
2022/01/16 10:17:10;;;;;;;8.75;7.88;;;1.00;99.90;;;;;;7379273;19;20336;-73
2022/01/16 10:19:36;;;;;;;8.05;7.25;;;1.20;99.90;;;;;;7376432;19;20309;-73
2022/01/16 10:22:04;;;;;;;9.73;7.93;;;1.10;99.90;;;;;;7377091;19;20337;-73
2022/01/16 10:24:32;;;;;;;16.52;13.10;;;1.20;99.90;;;;;;7371086;19;21269;-74
2022/01/16 10:27:14;;;;;;;10.98;7.70;;;1.20;99.90;;;;;;7379399;19;20413;-74
2022/01/16 10:29:40;;;;;;;10.38;7.53;;;1.20;99.90;;;;;;7379585;19;20331;-73
2022/01/16 10:32:16;;;;;;;11.07;7.85;;;1.30;99.90;;;;;;7382406;19;21062;-73
2022/01/16 10:34:42;;;;;;;9.50;7.53;;;1.40;99.90;;;;;;7372337;19;20316;-74
2022/01/16 10:37:21;;;;;;;12.60;10.00;;;1.60;99.90;;;;;;7381513;19;20385;-74
2022/01/16 10:39:54;;;;;;;11.00;8.60;;;1.60;99.90;;;;;;7277998;19;2006180;-74
2022/01/16 10:42:20;;;;;;;9.32;7.32;;;1.60;99.90;;;;;;7378924;19;20395;-74
2022/01/16 10:44:45;;;;;;;8.30;7.40;;;1.70;99.90;;;;;;7379263;19;20472;-74
2022/01/16 10:47:25;;;;;;;8.80;7.20;;;1.70;99.90;;;;;;7386795;19;21165;-74
2022/01/16 10:50:03;;;;;;;10.45;7.97;;;1.70;99.90;;;;;;7279366;19;2008271;-73
2022/01/16 10:52:29;;;;;;;8.93;7.30;;;1.70;99.90;;;;;;7278758;19;2004658;-74
2022/01/16 10:54:55;;;;;;;8.00;6.80;;;1.80;99.90;;;;;;7379072;19;21162;-74
2022/01/16 10:57:25;;;;;;;7.57;6.63;;;1.90;99.90;;;;;;7380324;19;20852;-74
2022/01/16 11:00:13;;;;;;;9.47;6.90;;;2.00;99.90;;;;;;7375731;19;20345;-73
2022/01/16 11:02:40;;;;;;;8.55;7.32;;;2.10;99.90;;;;;;7368887;19;20661;-74
2022/01/16 11:05:11;;;;;;;9.25;7.18;;;2.20;99.90;;;;;;7377307;19;20321;-75
2022/01/16 11:07:37;;;;;;;8.13;6.90;;;2.30;99.90;;;;;;7381332;19;20315;-74
2022/01/16 11:10:20;;;;;;;7.30;6.60;;;2.30;99.90;;;;;;7378094;19;20344;-75
2022/01/16 11:12:46;;;;;;;9.68;7.43;;;2.30;99.90;;;;;;7374852;19;20344;-74
2022/01/16 11:15:12;;;;;;;8.38;6.85;;;2.20;99.90;;;;;;7377196;19;20346;-76
2022/01/16 11:17:38;;;;;;;9.65;8.63;;;2.30;99.90;;;;;;7379283;19;20855;-74
2022/01/16 11:20:06;;;;;;;8.20;7.32;;;2.30;99.90;;;;;;7376385;19;20352;-74
2022/01/16 11:22:45;;;;;;;9.18;7.55;;;2.20;99.90;;;;;;7379933;19;20305;-75
2022/01/16 11:25:23;;;;;;;7.15;6.30;;;2.30;99.90;;;;;;7374626;19;20313;-75
2022/01/16 11:27:49;;;;;;;11.50;7.25;;;2.30;99.90;;;;;;7377946;19;20317;-75
2022/01/16 11:30:15;;;;;;;7.78;6.82;;;2.20;99.90;;;;;;7378807;19;20311;-75
2022/01/16 11:32:40;;;;;;;9.75;7.55;;;2.20;99.90;;;;;;7377722;19;20353;-75
2022/01/16 11:35:10;;;;;;;10.27;7.97;;;2.20;99.90;;;;;;7371228;19;22129;-76
2022/01/16 11:37:37;;;;;;;11.18;8.52;;;2.20;99.90;;;;;;7377920;19;20392;-76
2022/01/16 11:40:25;;;;;;;10.70;8.53;;;2.20;99.90;;;;;;7376053;19;20420;-75
2022/01/16 11:43:15;;;;;;;8.95;7.90;;;2.30;99.90;;;;;;7274348;19;2005511;-76
2022/01/16 11:46:22;;;;;;;10.27;8.18;;;2.30;99.90;;;;;;7278469;19;2004430;-76
2022/01/16 11:48:58;;;;;;;9.43;7.93;;;2.30;99.90;;;;;;7275049;19;2020666;-75
2022/01/16 11:51:33;;;;;;;8.60;7.70;;;2.40;99.90;;;;;;7357463;19;20313;-75
2022/01/16 11:54:04;;;;;;;8.82;7.78;;;2.40;99.90;;;;;;7377179;19;20312;-76
2022/01/16 11:59:43;;;;;;;10.23;8.05;;;2.20;99.90;;;;;;7257724;19;2008156;-76
2022/01/16 12:02:09;;;;;;;9.20;7.97;;;2.20;99.90;;;;;;7277062;19;2008498;-76
2022/01/16 12:04:36;;;;;;;9.00;8.07;;;2.00;99.90;;;;;;7377082;19;20408;-76
2022/01/16 12:07:15;;;;;;;9.43;8.38;;;2.00;99.90;;;;;;7379190;19;20328;-76
2022/01/16 12:09:48;;;;;;;10.53;7.73;;;2.00;99.90;;;;;;7276407;19;2005778;-75
2022/01/16 12:12:17;;;;;;;8.43;7.55;;;2.00;99.90;;;;;;7381485;19;20717;-75
2022/01/16 12:14:49;;;;;;;9.13;7.67;;;1.90;99.90;;;;;;7355667;19;20389;-75
2022/01/16 12:17:27;;;;;;;8.47;7.60;;;1.90;99.90;;;;;;7379477;19;20321;-75
2022/01/16 12:19:54;;;;;;;10.18;7.93;;;2.00;99.90;;;;;;7374383;19;20714;-76
2022/01/16 12:22:47;;;;;;;11.20;8.40;;;1.90;99.90;;;;;;7379069;19;20327;-76
2022/01/16 12:25:37;;;;;;;8.80;7.80;;;1.90;99.90;;;;;;7377757;19;20386;-75
2022/01/16 12:28:09;;;;;;;8.70;7.80;;;1.90;99.90;;;;;;7280779;19;2004440;-75
2022/01/16 12:30:55;;;;;;;9.55;8.10;;;1.90;99.90;;;;;;7280897;19;2004355;-75
2022/01/16 12:33:40;;;;;;;9.23;8.10;;;2.00;99.90;;;;;;7277564;19;2008647;-75
2022/01/16 12:36:12;;;;;;;7.90;7.10;;;2.00;99.90;;;;;;7378016;19;21181;-76
2022/01/16 12:38:40;;;;;;;10.75;7.40;;;2.10;99.90;;;;;;7376223;19;20312;-76
2022/01/16 12:41:14;;;;;;;10.55;8.18;;;2.10;99.90;;;;;;7378358;19;20328;-77
2022/01/16 12:43:44;;;;;;;8.88;7.57;;;2.10;99.90;;;;;;7375618;19;20340;-75
2022/01/16 12:46:37;;;;;;;10.93;7.97;;;2.10;99.90;;;;;;7378547;19;20340;-75
2022/01/16 12:49:05;;;;;;;11.23;8.33;;;2.10;99.90;;;;;;7275583;19;2005430;-76
2022/01/16 12:51:32;;;;;;;10.18;8.18;;;2.10;99.90;;;;;;7384836;19;20320;-76
2022/01/16 12:54:05;;;;;;;11.85;9.15;;;2.10;99.90;;;;;;7359451;19;20337;-75
2022/01/16 12:56:39;;;;;;;8.18;7.38;;;2.00;99.90;;;;;;7384348;19;20332;-75
2022/01/16 12:59:10;;;;;;;11.57;8.37;;;2.10;99.90;;;;;;7382758;19;20300;-75
2022/01/16 13:01:36;;;;;;;9.40;8.00;;;2.10;99.90;;;;;;7387304;19;20312;-75
2022/01/16 13:04:02;;;;;;;9.48;8.30;;;2.10;99.90;;;;;;7382189;19;20336;-76
2022/01/16 13:06:29;;;;;;;10.93;7.97;;;2.00;99.90;;;;;;7383488;19;20854;-76
2022/01/16 13:09:08;;;;;;;11.60;8.15;;;2.00;99.90;;;;;;7384358;19;20304;-75
2022/01/16 13:11:41;;;;;;;9.27;7.85;;;2.00;99.90;;;;;;7281629;19;2007961;-76
2022/01/16 13:14:14;;;;;;;10.73;8.68;;;2.00;99.90;;;;;;7383275;19;20313;-76
2022/01/16 13:16:42;;;;;;;13.20;8.98;;;2.00;99.90;;;;;;7385844;19;20404;-76
2022/01/16 13:19:12;;;;;;;9.00;8.10;;;2.00;99.90;;;;;;7378876;19;21657;-76
2022/01/16 13:21:58;;;;;;;11.05;8.80;;;2.00;99.90;;;;;;7383122;19;20795;-77
2022/01/16 13:24:47;;;;;;;9.80;8.32;;;2.00;99.90;;;;;;7383200;19;20404;-76
2022/01/16 13:27:34;;;;;;;8.65;7.68;;;2.00;99.90;;;;;;7384938;19;20332;-76
2022/01/16 13:30:02;;;;;;;9.48;8.30;;;2.10;99.90;;;;;;7277295;19;2008410;-75
2022/01/16 13:32:38;;;;;;;9.60;7.70;;;2.10;99.90;;;;;;7382471;19;20315;-76
2022/01/16 13:35:26;;;;;;;10.00;8.73;;;2.30;99.90;;;;;;7382906;19;20337;-76
2022/01/16 13:37:54;;;;;;;11.77;8.82;;;2.10;99.90;;;;;;7282945;19;2008105;-75